createdAt,value
2022-10-06T00:01:38.387Z,50.66
2022-10-06T00:04:11.442Z,50.67
2022-10-06T00:06:44.451Z,50.50
2022-10-06T00:09:17.353Z,50.44
2022-10-06T00:11:50.429Z,50.37
2022-10-06T00:14:23.503Z,50.36
2022-10-06T00:16:56.401Z,50.43
2022-10-06T00:19:29.482Z,50.48
2022-10-06T00:22:02.166Z,50.66
2022-10-06T00:24:35.475Z,50.49
2022-10-06T00:27:08.350Z,50.44
2022-10-06T00:29:41.506Z,50.51
2022-10-06T00:32:14.414Z,50.33
2022-10-06T00:34:47.479Z,50.47
2022-10-06T00:37:20.417Z,50.49
2022-10-06T00:39:53.434Z,50.46
2022-10-06T00:42:26.429Z,50.58
2022-10-06T00:45:02.452Z,50.41
2022-10-06T00:47:35.419Z,50.32
2022-10-06T00:50:08.371Z,50.40
2022-10-06T00:52:41.437Z,50.41
2022-10-06T00:55:14.390Z,50.44
2022-10-06T00:57:47.487Z,50.44
2022-10-06T01:00:20.501Z,50.35
2022-10-06T01:02:53.549Z,50.41
2022-10-06T01:05:26.425Z,50.35
2022-10-06T01:07:59.473Z,50.40
2022-10-06T01:10:32.539Z,50.40
2022-10-06T01:13:05.476Z,50.40
2022-10-06T01:15:38.555Z,50.57
2022-10-06T01:18:11.471Z,50.47
2022-10-06T01:20:44.435Z,50.46
2022-10-06T01:23:17.547Z,50.50
2022-10-06T01:26:04.405Z,50.45
2022-10-06T01:28:37.660Z,50.36
2022-10-06T01:31:10.580Z,50.45
2022-10-06T01:33:43.575Z,50.34
2022-10-06T01:36:16.476Z,50.37
2022-10-06T01:38:49.474Z,50.42
2022-10-06T01:41:22.534Z,50.40
2022-10-06T01:43:55.524Z,50.38
2022-10-06T01:46:28.624Z,50.49
2022-10-06T01:49:01.475Z,50.51
2022-10-06T01:51:34.505Z,50.54
2022-10-06T01:54:07.602Z,50.51
2022-10-06T01:56:40.588Z,50.46
2022-10-06T01:59:13.497Z,50.54
2022-10-06T02:01:46.764Z,50.49
2022-10-06T02:04:19.590Z,50.51
2022-10-06T02:06:52.618Z,50.63
2022-10-06T02:09:25.611Z,50.81
2022-10-06T02:11:58.629Z,50.70
2022-10-06T02:14:31.655Z,50.72
2022-10-06T02:17:04.557Z,50.88
2022-10-06T02:19:43.576Z,50.84
2022-10-06T02:22:16.665Z,50.80
2022-10-06T02:24:49.654Z,50.82
2022-10-06T02:27:22.630Z,50.84
2022-10-06T02:29:55.625Z,50.81
2022-10-06T02:32:28.675Z,50.84
2022-10-06T02:35:01.584Z,50.78
2022-10-06T02:37:48.606Z,50.86
2022-10-06T02:40:21.613Z,50.87
2022-10-06T02:42:54.607Z,50.78
2022-10-06T02:45:27.658Z,50.74
2022-10-06T02:48:00.697Z,50.77
2022-10-06T02:50:33.533Z,50.76
2022-10-06T02:53:06.706Z,50.75
2022-10-06T02:55:39.658Z,50.79
2022-10-06T02:58:12.702Z,50.80
2022-10-06T03:00:45.630Z,50.78
2022-10-06T03:03:18.592Z,50.79
2022-10-06T03:05:51.615Z,50.80
2022-10-06T03:08:24.797Z,50.78
2022-10-06T03:10:58.695Z,50.81
2022-10-06T03:13:31.621Z,50.90
2022-10-06T03:16:04.772Z,50.90
2022-10-06T03:18:37.727Z,50.86
2022-10-06T03:21:10.742Z,50.97
2022-10-06T03:23:43.649Z,50.87
2022-10-06T03:26:16.616Z,50.91
2022-10-06T03:28:49.808Z,50.87
2022-10-06T03:31:22.682Z,50.84
2022-10-06T03:33:55.656Z,50.95
2022-10-06T03:36:28.664Z,50.86
2022-10-06T03:39:01.751Z,50.88
2022-10-06T03:41:34.734Z,50.93
2022-10-06T03:44:07.765Z,50.95
2022-10-06T03:46:40.764Z,50.94
2022-10-06T03:49:13.788Z,50.89
2022-10-06T03:51:46.762Z,50.85
2022-10-06T03:54:19.678Z,50.88
2022-10-06T03:56:52.760Z,50.86
2022-10-06T03:59:25.446Z,50.90
2022-10-06T04:01:58.604Z,50.94
2022-10-06T04:04:31.538Z,50.89
2022-10-06T04:07:04.814Z,51.02
2022-10-06T04:09:37.721Z,50.94
2022-10-06T04:12:10.688Z,50.86
2022-10-06T04:14:43.926Z,50.90
2022-10-06T04:17:17.564Z,50.81
2022-10-06T04:19:50.502Z,50.84
2022-10-06T04:22:37.742Z,50.85
2022-10-06T04:25:10.762Z,50.83
2022-10-06T04:27:43.704Z,50.83
2022-10-06T04:30:16.728Z,50.87
2022-10-06T04:32:49.423Z,50.76
2022-10-06T04:35:22.685Z,50.81
2022-10-06T04:37:55.567Z,50.82
2022-10-06T04:40:28.630Z,50.83
2022-10-06T04:43:01.736Z,50.89
2022-10-06T04:45:34.986Z,50.82
2022-10-06T04:48:10.099Z,50.84
2022-10-06T04:50:40.496Z,50.78
2022-10-06T04:53:13.720Z,50.79
2022-10-06T04:55:46.824Z,50.79
2022-10-06T04:58:19.836Z,50.77
2022-10-06T05:00:52.872Z,50.77
2022-10-06T05:03:25.856Z,50.77
2022-10-06T05:05:58.886Z,50.73
2022-10-06T05:08:32.412Z,50.80
2022-10-06T05:11:04.849Z,50.77
2022-10-06T05:13:37.883Z,50.75
2022-10-06T05:16:10.865Z,50.79
2022-10-06T05:18:43.902Z,50.77
2022-10-06T05:21:30.836Z,50.75
2022-10-06T05:24:03.786Z,50.75
2022-10-06T05:26:36.843Z,50.84
2022-10-06T05:29:09.923Z,50.79
2022-10-06T05:31:42.938Z,50.84
2022-10-06T05:34:15.884Z,50.82
2022-10-06T05:37:02.818Z,50.82
2022-10-06T05:39:35.913Z,50.82
2022-10-06T05:42:08.799Z,50.85
2022-10-06T05:44:41.938Z,50.83
2022-10-06T05:47:14.882Z,50.84
2022-10-06T05:49:47.932Z,50.77
2022-10-06T05:52:20.942Z,50.78
2022-10-06T05:54:53.966Z,50.85
2022-10-06T05:57:26.827Z,50.83
2022-10-06T05:59:59.945Z,50.78
2022-10-06T06:02:32.977Z,50.83
2022-10-06T06:05:05.999Z,50.82
2022-10-06T06:07:38.887Z,50.80
2022-10-06T06:10:11.980Z,50.79
2022-10-06T06:12:44.970Z,50.78
2022-10-06T06:15:17.920Z,50.81
2022-10-06T06:17:50.954Z,50.92
2022-10-06T06:20:23.986Z,49.88
2022-10-06T06:22:56.862Z,48.72
2022-10-06T06:25:29.989Z,48.55
2022-10-06T06:28:08.968Z,48.52
2022-10-06T06:30:41.712Z,48.40
2022-10-06T06:33:14.903Z,49.47
2022-10-06T06:35:48.021Z,49.56
2022-10-06T06:38:20.932Z,49.69
2022-10-06T06:40:53.908Z,49.79
2022-10-06T06:43:27.382Z,49.79
2022-10-06T06:46:00.162Z,49.91
2022-10-06T06:48:33.386Z,49.98
2022-10-06T06:51:05.908Z,49.97
2022-10-06T06:53:39.072Z,50.06
2022-10-06T06:56:12.003Z,50.10
2022-10-06T06:58:44.999Z,50.14
2022-10-06T07:01:18.102Z,50.17
2022-10-06T07:03:58.941Z,50.17
2022-10-06T07:06:27.799Z,50.26
2022-10-06T07:08:56.986Z,50.32
2022-10-06T07:11:29.983Z,50.35
2022-10-06T07:14:02.969Z,50.37
2022-10-06T07:16:36.062Z,49.75
2022-10-06T07:19:09.013Z,48.93
2022-10-06T07:21:41.949Z,48.74
2022-10-06T07:24:14.895Z,48.97
2022-10-06T07:26:48.092Z,49.27
2022-10-06T07:29:20.979Z,49.41
2022-10-06T07:31:53.963Z,49.44
2022-10-06T07:34:27.068Z,49.53
2022-10-06T07:37:04.067Z,49.68
2022-10-06T07:39:33.205Z,49.69
2022-10-06T07:42:07.028Z,49.70
2022-10-06T07:44:40.087Z,49.73
2022-10-06T07:47:13.021Z,49.76
2022-10-06T07:49:46.048Z,49.86
2022-10-06T07:52:19.047Z,49.82
2022-10-06T07:54:52.465Z,49.88
2022-10-06T07:57:24.999Z,49.84
2022-10-06T08:00:12.094Z,49.85
2022-10-06T08:02:45.217Z,49.84
2022-10-06T08:05:18.032Z,49.92
2022-10-06T08:07:51.100Z,49.86
2022-10-06T08:10:24.097Z,49.88
2022-10-06T08:12:57.163Z,49.96
2022-10-06T08:15:30.056Z,49.97
2022-10-06T08:18:08.722Z,49.99
2022-10-06T08:20:35.917Z,49.99
2022-10-06T08:23:09.196Z,50.00
2022-10-06T08:25:42.278Z,49.94
2022-10-06T08:28:15.129Z,49.97
2022-10-06T08:30:48.065Z,49.98
2022-10-06T08:33:21.650Z,49.98
2022-10-06T08:35:53.895Z,49.95
2022-10-06T08:38:26.928Z,50.01
2022-10-06T08:41:00.214Z,49.98
2022-10-06T08:43:33.042Z,49.97
2022-10-06T08:46:06.179Z,49.96
2022-10-06T08:48:39.050Z,49.97
2022-10-06T08:51:12.105Z,49.98
2022-10-06T08:53:45.199Z,49.94
2022-10-06T08:56:18.242Z,49.94
2022-10-06T08:58:51.232Z,49.98
2022-10-06T09:01:24.206Z,50.04
2022-10-06T09:03:56.880Z,50.04
2022-10-06T09:06:30.097Z,50.03
2022-10-06T09:09:03.175Z,50.03
2022-10-06T09:11:36.258Z,50.02
2022-10-06T09:14:09.100Z,50.00
2022-10-06T09:16:42.128Z,49.96
2022-10-06T09:19:15.195Z,49.98
2022-10-06T09:21:48.190Z,49.97
2022-10-06T09:24:21.269Z,50.00
2022-10-06T09:26:54.241Z,49.99
2022-10-06T09:29:27.187Z,49.97
2022-10-06T09:32:00.258Z,49.97
2022-10-06T09:34:33.205Z,50.00
2022-10-06T09:37:06.244Z,49.98
2022-10-06T09:39:39.160Z,49.98
2022-10-06T09:42:12.253Z,49.99
2022-10-06T09:44:45.157Z,49.98
2022-10-06T09:47:18.154Z,49.96
2022-10-06T09:49:51.212Z,49.94
2022-10-06T09:52:24.279Z,49.93
2022-10-06T09:55:00.116Z,49.93
2022-10-06T09:57:32.984Z,49.94
2022-10-06T10:00:06.297Z,49.91
2022-10-06T10:02:39.278Z,49.87
2022-10-06T10:05:12.227Z,49.85
2022-10-06T10:07:45.264Z,49.81
2022-10-06T10:10:18.232Z,49.82
2022-10-06T10:12:50.998Z,49.84
2022-10-06T10:15:24.064Z,49.81
2022-10-06T10:17:56.934Z,49.79
2022-10-06T10:20:30.243Z,49.78
2022-10-06T10:23:03.345Z,49.80
2022-10-06T10:25:36.137Z,49.76
2022-10-06T10:28:09.168Z,49.77
2022-10-06T10:30:41.983Z,49.78
2022-10-06T10:33:15.285Z,49.78
2022-10-06T10:35:48.096Z,49.77
2022-10-06T10:38:21.263Z,49.77
2022-10-06T10:40:54.227Z,49.79
2022-10-06T10:43:27.129Z,49.74
2022-10-06T10:46:00.118Z,49.77
2022-10-06T10:48:33.230Z,49.72
2022-10-06T10:51:06.122Z,49.72
2022-10-06T10:53:42.505Z,49.77
2022-10-06T10:56:12.371Z,49.71
2022-10-06T10:58:45.184Z,49.71
2022-10-06T11:01:18.148Z,49.71
2022-10-06T11:03:51.353Z,49.74
2022-10-06T11:06:24.083Z,49.77
2022-10-06T11:08:57.169Z,49.75
2022-10-06T11:11:30.115Z,49.74
2022-10-06T11:14:03.037Z,49.73
2022-10-06T11:16:36.289Z,49.73
2022-10-06T11:19:09.108Z,49.74
2022-10-06T11:21:42.211Z,49.72
2022-10-06T11:24:15.053Z,49.72
2022-10-06T11:26:48.058Z,49.72
2022-10-06T11:29:21.273Z,49.70
2022-10-06T11:31:54.126Z,49.70
2022-10-06T11:34:27.174Z,49.67
2022-10-06T11:37:00.189Z,49.70
2022-10-06T11:39:33.148Z,49.70
2022-10-06T11:42:06.187Z,49.71
2022-10-06T11:44:39.283Z,49.70
2022-10-06T11:47:12.228Z,49.70
2022-10-06T11:49:45.523Z,49.68
2022-10-06T11:52:18.106Z,49.65
2022-10-06T11:54:51.230Z,49.65
2022-10-06T11:57:30.238Z,49.68
2022-10-06T11:59:57.120Z,49.68
2022-10-06T12:02:30.535Z,49.67
2022-10-06T12:05:03.521Z,49.66
2022-10-06T12:07:36.359Z,49.63
2022-10-06T12:10:09.490Z,49.64
2022-10-06T12:12:42.461Z,49.66
2022-10-06T12:17:48.484Z,49.54
2022-10-06T12:20:21.434Z,49.48
2022-10-06T12:22:54.375Z,49.42
2022-10-06T12:25:27.308Z,49.34
2022-10-06T12:28:00.493Z,49.27
2022-10-06T12:30:33.582Z,49.22
2022-10-06T12:33:06.451Z,48.91
2022-10-06T12:35:39.497Z,49.13
2022-10-06T12:38:12.463Z,49.24
2022-10-06T12:40:45.549Z,49.28
2022-10-06T12:43:18.430Z,49.32
2022-10-06T12:45:51.527Z,49.40
2022-10-06T12:48:24.426Z,49.40
2022-10-06T12:50:57.560Z,49.43
2022-10-06T12:53:30.470Z,49.45
2022-10-06T12:56:03.395Z,49.46
2022-10-06T12:58:36.477Z,49.47
2022-10-06T13:01:09.546Z,49.49
2022-10-06T13:03:56.259Z,49.46
2022-10-06T13:06:29.334Z,49.47
2022-10-06T13:09:02.453Z,49.48
2022-10-06T13:11:35.588Z,49.47
2022-10-06T13:14:08.507Z,49.49
2022-10-06T13:16:41.691Z,49.49
2022-10-06T13:19:14.592Z,49.50
2022-10-06T13:21:47.549Z,49.52
2022-10-06T13:24:20.481Z,49.50
2022-10-06T13:26:53.582Z,49.47
2022-10-06T13:29:26.476Z,49.49
2022-10-06T13:31:59.545Z,49.48
2022-10-06T13:34:32.486Z,49.49
2022-10-06T13:37:05.570Z,49.49
2022-10-06T13:39:38.512Z,49.51
2022-10-06T13:42:11.570Z,49.42
2022-10-06T13:44:44.292Z,49.31
2022-10-06T13:47:17.613Z,48.93
2022-10-06T13:49:50.498Z,48.70
2022-10-06T13:52:23.641Z,48.20
2022-10-06T13:54:56.557Z,48.02
2022-10-06T13:57:29.637Z,48.14
2022-10-06T14:00:02.615Z,48.26
2022-10-06T14:02:35.545Z,48.20
2022-10-06T14:05:22.568Z,48.19
2022-10-06T14:07:55.636Z,48.23
2022-10-06T14:10:28.542Z,48.39
2022-10-06T14:13:01.540Z,48.40
2022-10-06T14:15:34.671Z,48.36
2022-10-06T14:18:07.713Z,48.41
2022-10-06T14:20:40.421Z,48.36
2022-10-06T14:23:13.562Z,48.41
2022-10-06T14:25:46.668Z,48.18
2022-10-06T14:28:19.675Z,48.14
2022-10-06T14:30:52.766Z,48.06
2022-10-06T14:33:25.713Z,48.21
2022-10-06T14:35:58.591Z,48.34
2022-10-06T14:38:31.575Z,48.40
2022-10-06T14:41:04.642Z,48.36
2022-10-06T14:43:37.607Z,48.24
2022-10-06T14:46:10.711Z,48.29
2022-10-06T14:48:43.710Z,48.16
2022-10-06T14:51:16.628Z,48.10
2022-10-06T14:53:49.697Z,48.04
2022-10-06T14:56:22.626Z,48.04
2022-10-06T14:58:55.741Z,47.97
2022-10-06T15:01:28.639Z,48.01
2022-10-06T15:04:01.840Z,47.96
2022-10-06T15:06:34.668Z,47.98
2022-10-06T15:09:07.743Z,47.82
2022-10-06T15:11:40.658Z,47.86
2022-10-06T15:14:13.638Z,47.90
2022-10-06T15:16:46.657Z,47.78
2022-10-06T15:19:19.456Z,47.75
2022-10-06T15:21:52.366Z,47.73
2022-10-06T15:24:25.665Z,48.00
2022-10-06T15:26:58.719Z,47.93
2022-10-06T15:29:31.746Z,47.94
2022-10-06T15:32:04.743Z,47.85
2022-10-06T15:34:38.020Z,47.78
2022-10-06T15:37:10.714Z,47.77
2022-10-06T15:39:43.681Z,47.80
2022-10-06T15:42:16.714Z,47.70
2022-10-06T15:44:49.818Z,47.69
2022-10-06T15:47:22.395Z,47.60
2022-10-06T15:49:55.846Z,47.54
2022-10-06T15:52:28.670Z,47.48
2022-10-06T15:55:01.808Z,47.51
2022-10-06T15:57:34.707Z,47.53
2022-10-06T16:00:07.815Z,47.53
2022-10-06T16:02:40.951Z,47.46
2022-10-06T16:05:13.895Z,47.52
2022-10-06T16:07:46.802Z,47.42
2022-10-06T16:10:19.531Z,47.47
2022-10-06T16:12:52.847Z,47.46
2022-10-06T16:15:25.611Z,47.46
2022-10-06T16:18:12.369Z,47.42
2022-10-06T16:20:45.629Z,47.38
2022-10-06T16:23:18.846Z,47.36
2022-10-06T16:25:51.751Z,47.21
2022-10-06T16:28:24.584Z,47.09
2022-10-06T16:30:57.548Z,46.88
2022-10-06T16:33:33.617Z,46.85
2022-10-06T16:36:06.816Z,46.93
2022-10-06T16:38:39.691Z,46.97
2022-10-06T16:41:12.808Z,46.97
2022-10-06T16:43:45.495Z,47.09
2022-10-06T16:46:18.516Z,47.03
2022-10-06T16:48:51.763Z,47.04
2022-10-06T16:51:24.526Z,47.13
2022-10-06T16:53:57.754Z,47.26
2022-10-06T16:56:30.909Z,47.34
2022-10-06T16:59:03.818Z,47.40
2022-10-06T17:01:36.917Z,47.44
2022-10-06T17:04:09.868Z,47.51
2022-10-06T17:06:42.533Z,47.56
2022-10-06T17:09:15.524Z,47.61
2022-10-06T17:11:48.643Z,47.64
2022-10-06T17:14:21.907Z,47.72
2022-10-06T17:16:54.691Z,47.76
2022-10-06T17:19:27.581Z,47.82
2022-10-06T17:22:00.708Z,47.84
2022-10-06T17:24:33.690Z,47.86
2022-10-06T17:27:06.799Z,47.91
2022-10-06T17:29:39.805Z,47.93
2022-10-06T17:32:12.952Z,47.97
2022-10-06T17:34:45.694Z,47.96
2022-10-06T17:37:18.849Z,48.00
2022-10-06T17:39:51.649Z,48.02
2022-10-06T17:42:24.951Z,48.04
2022-10-06T17:44:57.962Z,48.07
2022-10-06T17:47:30.970Z,48.06
2022-10-06T17:50:03.678Z,48.09
2022-10-06T17:52:36.599Z,48.11
2022-10-06T17:55:09.865Z,48.11
2022-10-06T17:57:42.925Z,48.11
2022-10-06T18:00:15.828Z,48.12
2022-10-06T18:02:48.912Z,48.12
2022-10-06T18:05:21.864Z,48.13
2022-10-06T18:07:54.938Z,48.15
2022-10-06T18:10:27.660Z,48.18
2022-10-06T18:13:00.622Z,48.19
2022-10-06T18:15:33.962Z,48.19
2022-10-06T18:18:06.747Z,48.21
2022-10-06T18:20:39.648Z,48.23
2022-10-06T18:23:12.642Z,48.23
2022-10-06T18:25:45.698Z,48.22
2022-10-06T18:28:18.742Z,48.25
2022-10-06T18:30:51.724Z,48.25
2022-10-06T18:36:15.094Z,48.23
2022-10-06T18:38:30.986Z,48.25
2022-10-06T18:41:03.980Z,48.23
2022-10-06T18:43:37.063Z,48.27
2022-10-06T18:46:09.760Z,48.25
2022-10-06T18:48:42.777Z,48.27
2022-10-06T18:51:15.906Z,48.29
2022-10-06T18:53:48.819Z,48.29
2022-10-06T18:56:21.975Z,48.28
2022-10-06T18:58:54.760Z,48.29
2022-10-06T19:01:28.008Z,48.32
2022-10-06T19:04:00.735Z,48.30
2022-10-06T19:06:33.826Z,48.33
2022-10-06T19:09:06.761Z,48.36
2022-10-06T19:11:39.851Z,48.37
2022-10-06T19:14:13.028Z,48.33
2022-10-06T19:16:45.888Z,48.33
2022-10-06T19:19:19.021Z,48.31
2022-10-06T19:21:51.985Z,48.32
2022-10-06T19:24:24.861Z,48.29
2022-10-06T19:26:58.122Z,48.32
2022-10-06T19:29:44.879Z,48.32
2022-10-06T19:32:17.989Z,48.32
2022-10-06T19:34:50.706Z,48.34
2022-10-06T19:37:23.721Z,48.35
2022-10-06T19:39:57.138Z,48.34
2022-10-06T19:42:29.776Z,48.32
2022-10-06T19:45:03.030Z,48.39
2022-10-06T19:47:36.117Z,48.35
2022-10-06T19:50:12.547Z,47.88
2022-10-06T19:52:41.927Z,47.32
2022-10-06T19:55:14.795Z,46.61
2022-10-06T19:57:47.738Z,46.47
2022-10-06T20:00:21.032Z,46.42
2022-10-06T20:02:54.028Z,46.21
2022-10-06T20:05:27.061Z,46.45
2022-10-06T20:07:59.942Z,46.81
2022-10-06T20:10:32.944Z,46.90
2022-10-06T20:13:05.794Z,47.05
2022-10-06T20:15:39.152Z,47.10
2022-10-06T20:18:12.077Z,47.22
2022-10-06T20:20:45.053Z,47.29
2022-10-06T20:23:18.198Z,47.36
2022-10-06T20:25:51.082Z,47.41
2022-10-06T20:28:23.932Z,47.42
2022-10-06T20:30:57.275Z,47.51
2022-10-06T20:33:30.162Z,47.56
2022-10-06T20:36:03.199Z,47.68
2022-10-06T20:38:36.112Z,47.81
2022-10-06T20:41:09.134Z,47.83
2022-10-06T20:43:42.191Z,47.89
2022-10-06T20:46:14.931Z,47.92
2022-10-06T20:48:48.201Z,47.97
2022-10-06T20:51:24.278Z,47.97
2022-10-06T20:53:54.275Z,47.97
2022-10-06T20:56:27.230Z,48.12
2022-10-06T20:59:00.192Z,48.04
2022-10-06T21:01:33.125Z,48.12
2022-10-06T21:04:06.169Z,48.08
2022-10-06T21:06:39.324Z,48.11
2022-10-06T21:09:13.264Z,48.18
2022-10-06T21:11:46.386Z,48.13
2022-10-06T21:14:20.322Z,48.18
2022-10-06T21:16:54.363Z,48.18
2022-10-06T21:19:28.344Z,48.38
2022-10-06T21:22:01.933Z,48.28
2022-10-06T21:24:35.382Z,48.74
2022-10-06T21:27:09.325Z,48.48
2022-10-06T21:29:42.308Z,48.75
2022-10-06T21:32:16.274Z,48.67
2022-10-06T21:34:49.305Z,48.63
2022-10-06T21:37:22.376Z,48.81
2022-10-06T21:39:59.999Z,48.94
2022-10-06T21:42:30.293Z,48.72
2022-10-06T21:45:03.308Z,48.92
2022-10-06T21:47:36.267Z,48.93
2022-10-06T21:50:09.293Z,48.76
2022-10-06T21:52:42.285Z,48.80
2022-10-06T21:55:15.308Z,48.90
2022-10-06T21:57:48.222Z,49.02
2022-10-06T22:00:21.127Z,49.00
2022-10-06T22:02:54.087Z,48.81
2022-10-06T22:05:27.337Z,48.98
2022-10-06T22:08:00.397Z,49.06
2022-10-06T22:10:34.242Z,49.09
2022-10-06T22:13:07.419Z,49.09
2022-10-06T22:15:41.428Z,48.99
2022-10-06T22:18:15.345Z,49.28
2022-10-06T22:20:48.367Z,49.02
2022-10-06T22:23:21.391Z,49.10
2022-10-06T22:25:55.365Z,49.14
2022-10-06T22:28:28.578Z,49.06
2022-10-06T22:31:02.411Z,49.18
2022-10-06T22:33:35.421Z,49.16
2022-10-06T22:36:09.477Z,49.24
2022-10-06T22:38:43.366Z,49.25
2022-10-06T22:41:16.409Z,49.28
2022-10-06T22:43:49.452Z,49.35
2022-10-06T22:46:23.441Z,49.41
2022-10-06T22:48:56.473Z,49.32
2022-10-06T22:51:30.396Z,49.35
2022-10-06T22:54:03.443Z,49.60
2022-10-06T22:56:37.505Z,49.38
2022-10-06T22:59:11.484Z,49.47
2022-10-06T23:01:45.464Z,49.51
2022-10-06T23:04:19.485Z,49.48
2022-10-06T23:06:53.433Z,49.59
2022-10-06T23:09:26.450Z,49.49
2022-10-06T23:11:59.537Z,49.50
2022-10-06T23:14:33.241Z,49.56
2022-10-06T23:17:06.495Z,49.65
2022-10-06T23:19:40.433Z,49.68
2022-10-06T23:22:13.539Z,49.64
2022-10-06T23:24:47.424Z,49.71
2022-10-06T23:27:20.541Z,49.63
2022-10-06T23:29:54.500Z,49.65
2022-10-06T23:32:28.455Z,49.57
2022-10-06T23:35:01.491Z,49.60
2022-10-06T23:37:35.340Z,49.49
2022-10-06T23:40:08.556Z,49.53
2022-10-06T23:42:42.437Z,49.51
2022-10-06T23:45:15.581Z,49.51
2022-10-06T23:47:49.147Z,49.52
2022-10-06T23:50:22.572Z,49.52
2022-10-06T23:52:56.570Z,49.51
2022-10-06T23:55:30.433Z,49.56
2022-10-06T23:58:03.539Z,49.55
